sensor_id;sensor_type;location;lat;lon;timestamp;temperature;humidity
21834;DHT22;11079;51.092;3.458;2023-03-11T00:02:23;2.70;99.90
21834;DHT22;11079;51.092;3.458;2023-03-11T00:11:31;2.90;99.90
21834;DHT22;11079;51.092;3.458;2023-03-11T00:14:25;3.10;99.90
21834;DHT22;11079;51.092;3.458;2023-03-11T00:17:00;3.30;99.90
21834;DHT22;11079;51.092;3.458;2023-03-11T00:19:31;3.20;99.90
21834;DHT22;11079;51.092;3.458;2023-03-11T00:21:59;3.40;99.90
21834;DHT22;11079;51.092;3.458;2023-03-11T00:37:53;3.20;99.90
21834;DHT22;11079;51.092;3.458;2023-03-11T00:41:02;3.10;99.90
21834;DHT22;11079;51.092;3.458;2023-03-11T00:44:13;3.30;99.90
21834;DHT22;11079;51.092;3.458;2023-03-11T00:53:50;3.00;99.90
21834;DHT22;11079;51.092;3.458;2023-03-11T01:03:24;2.90;99.90
21834;DHT22;11079;51.092;3.458;2023-03-11T01:06:01;2.70;99.90
21834;DHT22;11079;51.092;3.458;2023-03-11T01:08:47;2.50;99.90
21834;DHT22;11079;51.092;3.458;2023-03-11T01:11:36;2.70;99.90
21834;DHT22;11079;51.092;3.458;2023-03-11T01:17:21;2.80;99.90
21834;DHT22;11079;51.092;3.458;2023-03-11T01:20:33;2.80;99.90
21834;DHT22;11079;51.092;3.458;2023-03-11T01:23:27;2.80;99.90
21834;DHT22;11079;51.092;3.458;2023-03-11T01:26:07;2.90;99.90
21834;DHT22;11079;51.092;3.458;2023-03-11T01:28:53;2.90;99.90
21834;DHT22;11079;51.092;3.458;2023-03-11T01:31:43;2.90;99.90
21834;DHT22;11079;51.092;3.458;2023-03-11T01:34:39;3.00;99.90
21834;DHT22;11079;51.092;3.458;2023-03-11T01:37:21;3.10;99.90
21834;DHT22;11079;51.092;3.458;2023-03-11T01:39:57;3.10;99.90
21834;DHT22;11079;51.092;3.458;2023-03-11T01:42:47;3.00;99.90
21834;DHT22;11079;51.092;3.458;2023-03-11T01:48:27;3.10;99.90
21834;DHT22;11079;51.092;3.458;2023-03-11T02:17:42;2.60;99.90
21834;DHT22;11079;51.092;3.458;2023-03-11T02:32:21;2.50;99.90
21834;DHT22;11079;51.092;3.458;2023-03-11T02:34:58;2.70;99.90
21834;DHT22;11079;51.092;3.458;2023-03-11T02:40:48;2.70;99.90
21834;DHT22;11079;51.092;3.458;2023-03-11T02:43:43;2.70;99.90
21834;DHT22;11079;51.092;3.458;2023-03-11T02:46:34;3.00;99.90
21834;DHT22;11079;51.092;3.458;2023-03-11T02:57:25;2.90;99.90
21834;DHT22;11079;51.092;3.458;2023-03-11T02:59:56;2.90;99.90
21834;DHT22;11079;51.092;3.458;2023-03-11T03:02:24;3.10;99.90
21834;DHT22;11079;51.092;3.458;2023-03-11T03:04:55;3.10;99.90
21834;DHT22;11079;51.092;3.458;2023-03-11T03:07:25;3.10;99.90
21834;DHT22;11079;51.092;3.458;2023-03-11T03:09:59;3.00;99.90
21834;DHT22;11079;51.092;3.458;2023-03-11T03:12:24;3.10;99.90
21834;DHT22;11079;51.092;3.458;2023-03-11T03:14:50;3.00;99.90
21834;DHT22;11079;51.092;3.458;2023-03-11T03:17:18;3.00;99.90
21834;DHT22;11079;51.092;3.458;2023-03-11T03:19:47;3.00;99.90
21834;DHT22;11079;51.092;3.458;2023-03-11T03:22:22;2.90;99.90
21834;DHT22;11079;51.092;3.458;2023-03-11T03:24:52;2.80;99.90
21834;DHT22;11079;51.092;3.458;2023-03-11T03:27:20;2.80;99.90
21834;DHT22;11079;51.092;3.458;2023-03-11T03:29:46;2.60;99.90
21834;DHT22;11079;51.092;3.458;2023-03-11T03:32:12;2.50;99.90
21834;DHT22;11079;51.092;3.458;2023-03-11T03:34:37;2.20;99.90
21834;DHT22;11079;51.092;3.458;2023-03-11T03:37:03;2.30;99.90
21834;DHT22;11079;51.092;3.458;2023-03-11T03:39:29;2.10;99.90
21834;DHT22;11079;51.092;3.458;2023-03-11T03:42:01;2.20;99.90
21834;DHT22;11079;51.092;3.458;2023-03-11T03:44:26;2.10;99.90
21834;DHT22;11079;51.092;3.458;2023-03-11T03:46:52;2.10;99.90
21834;DHT22;11079;51.092;3.458;2023-03-11T03:49:20;1.90;99.90
21834;DHT22;11079;51.092;3.458;2023-03-11T03:51:46;1.80;99.90
21834;DHT22;11079;51.092;3.458;2023-03-11T03:54:14;1.80;99.90
21834;DHT22;11079;51.092;3.458;2023-03-11T03:56:40;1.80;99.90
21834;DHT22;11079;51.092;3.458;2023-03-11T03:59:05;1.90;99.90
21834;DHT22;11079;51.092;3.458;2023-03-11T04:01:34;2.00;99.90
21834;DHT22;11079;51.092;3.458;2023-03-11T04:04:00;2.00;99.90
21834;DHT22;11079;51.092;3.458;2023-03-11T04:06:34;2.00;99.90
21834;DHT22;11079;51.092;3.458;2023-03-11T04:09:13;2.10;99.90
21834;DHT22;11079;51.092;3.458;2023-03-11T04:11:38;2.10;99.90
21834;DHT22;11079;51.092;3.458;2023-03-11T04:14:17;1.90;99.90
21834;DHT22;11079;51.092;3.458;2023-03-11T04:16:53;1.80;99.90
21834;DHT22;11079;51.092;3.458;2023-03-11T04:19:21;1.90;99.90
21834;DHT22;11079;51.092;3.458;2023-03-11T04:21:56;2.10;99.90
21834;DHT22;11079;51.092;3.458;2023-03-11T04:24:25;2.10;99.90
21834;DHT22;11079;51.092;3.458;2023-03-11T04:26:50;1.90;99.90
21834;DHT22;11079;51.092;3.458;2023-03-11T04:29:21;1.90;99.90
21834;DHT22;11079;51.092;3.458;2023-03-11T04:31:47;1.90;99.90
21834;DHT22;11079;51.092;3.458;2023-03-11T04:34:12;1.70;99.90
21834;DHT22;11079;51.092;3.458;2023-03-11T04:36:38;1.60;99.90
21834;DHT22;11079;51.092;3.458;2023-03-11T04:39:04;1.70;99.90
21834;DHT22;11079;51.092;3.458;2023-03-11T04:41:30;1.60;99.90
21834;DHT22;11079;51.092;3.458;2023-03-11T04:43:55;1.60;99.90
21834;DHT22;11079;51.092;3.458;2023-03-11T04:46:23;1.60;99.90
21834;DHT22;11079;51.092;3.458;2023-03-11T04:48:48;1.50;99.90
21834;DHT22;11079;51.092;3.458;2023-03-11T04:51:14;1.70;99.90
21834;DHT22;11079;51.092;3.458;2023-03-11T04:53:40;1.70;99.90
21834;DHT22;11079;51.092;3.458;2023-03-11T04:56:06;1.60;99.90
21834;DHT22;11079;51.092;3.458;2023-03-11T04:58:32;1.60;99.90
21834;DHT22;11079;51.092;3.458;2023-03-11T05:00:57;1.60;99.90
21834;DHT22;11079;51.092;3.458;2023-03-11T05:03:23;1.60;99.90
21834;DHT22;11079;51.092;3.458;2023-03-11T05:05:49;1.70;99.90
21834;DHT22;11079;51.092;3.458;2023-03-11T05:08:14;1.70;99.90
21834;DHT22;11079;51.092;3.458;2023-03-11T05:10:40;1.70;99.90
21834;DHT22;11079;51.092;3.458;2023-03-11T05:13:07;1.70;99.90
21834;DHT22;11079;51.092;3.458;2023-03-11T05:15:33;1.70;99.90
21834;DHT22;11079;51.092;3.458;2023-03-11T05:18:08;1.70;99.90
21834;DHT22;11079;51.092;3.458;2023-03-11T05:20:34;1.70;99.90
21834;DHT22;11079;51.092;3.458;2023-03-11T05:23:06;1.70;99.90
21834;DHT22;11079;51.092;3.458;2023-03-11T05:25:32;1.80;99.90
21834;DHT22;11079;51.092;3.458;2023-03-11T05:27:58;1.90;99.90
21834;DHT22;11079;51.092;3.458;2023-03-11T05:30:28;1.70;99.90
21834;DHT22;11079;51.092;3.458;2023-03-11T05:32:59;1.60;99.90
21834;DHT22;11079;51.092;3.458;2023-03-11T05:35:25;1.60;99.90
21834;DHT22;11079;51.092;3.458;2023-03-11T05:37:50;1.60;99.90
21834;DHT22;11079;51.092;3.458;2023-03-11T05:40:17;1.60;99.90
21834;DHT22;11079;51.092;3.458;2023-03-11T05:42:43;1.50;99.90
21834;DHT22;11079;51.092;3.458;2023-03-11T05:45:09;1.70;99.90
21834;DHT22;11079;51.092;3.458;2023-03-11T05:47:35;1.60;99.90
21834;DHT22;11079;51.092;3.458;2023-03-11T05:50:01;1.60;99.90
21834;DHT22;11079;51.092;3.458;2023-03-11T05:52:27;1.60;99.90
21834;DHT22;11079;51.092;3.458;2023-03-11T05:54:52;1.50;99.90
21834;DHT22;11079;51.092;3.458;2023-03-11T05:57:21;1.40;99.90
21834;DHT22;11079;51.092;3.458;2023-03-11T05:59:46;1.50;99.90
21834;DHT22;11079;51.092;3.458;2023-03-11T06:02:12;1.50;99.90
21834;DHT22;11079;51.092;3.458;2023-03-11T06:04:39;1.40;99.90
21834;DHT22;11079;51.092;3.458;2023-03-11T06:07:05;1.40;99.90
21834;DHT22;11079;51.092;3.458;2023-03-11T06:09:32;1.50;99.90
21834;DHT22;11079;51.092;3.458;2023-03-11T06:12:01;1.40;99.90
21834;DHT22;11079;51.092;3.458;2023-03-11T06:14:27;1.50;99.90
21834;DHT22;11079;51.092;3.458;2023-03-11T06:16:58;1.60;99.90
21834;DHT22;11079;51.092;3.458;2023-03-11T06:19:24;1.50;99.90
21834;DHT22;11079;51.092;3.458;2023-03-11T06:21:53;1.70;99.90
21834;DHT22;11079;51.092;3.458;2023-03-11T06:24:57;1.70;99.90
21834;DHT22;11079;51.092;3.458;2023-03-11T06:27:53;1.70;99.90
21834;DHT22;11079;51.092;3.458;2023-03-11T06:30:22;1.90;99.90
21834;DHT22;11079;51.092;3.458;2023-03-11T06:32:48;2.00;99.90
21834;DHT22;11079;51.092;3.458;2023-03-11T06:35:14;2.10;99.90
21834;DHT22;11079;51.092;3.458;2023-03-11T06:37:50;2.30;99.90
21834;DHT22;11079;51.092;3.458;2023-03-11T06:40:16;2.60;99.90
21834;DHT22;11079;51.092;3.458;2023-03-11T06:42:45;3.00;99.90
21834;DHT22;11079;51.092;3.458;2023-03-11T06:45:15;3.80;99.90
21834;DHT22;11079;51.092;3.458;2023-03-11T06:47:41;4.70;99.90
21834;DHT22;11079;51.092;3.458;2023-03-11T06:50:07;5.70;99.90
21834;DHT22;11079;51.092;3.458;2023-03-11T06:52:34;6.40;99.90
21834;DHT22;11079;51.092;3.458;2023-03-11T06:55:02;7.20;99.90
21834;DHT22;11079;51.092;3.458;2023-03-11T06:57:28;7.90;99.90
21834;DHT22;11079;51.092;3.458;2023-03-11T06:59:58;8.60;99.90
21834;DHT22;11079;51.092;3.458;2023-03-11T07:02:24;9.30;99.90
21834;DHT22;11079;51.092;3.458;2023-03-11T07:04:50;10.40;99.90
21834;DHT22;11079;51.092;3.458;2023-03-11T07:07:16;11.00;99.90
21834;DHT22;11079;51.092;3.458;2023-03-11T07:09:45;11.60;99.90
21834;DHT22;11079;51.092;3.458;2023-03-11T07:12:17;12.40;99.90
21834;DHT22;11079;51.092;3.458;2023-03-11T07:14:55;13.40;99.90
21834;DHT22;11079;51.092;3.458;2023-03-11T07:17:24;14.10;99.90
21834;DHT22;11079;51.092;3.458;2023-03-11T07:19:50;14.00;99.90
21834;DHT22;11079;51.092;3.458;2023-03-11T07:22:16;14.30;99.90
21834;DHT22;11079;51.092;3.458;2023-03-11T07:24:48;14.70;99.90
21834;DHT22;11079;51.092;3.458;2023-03-11T07:27:14;15.20;99.90
21834;DHT22;11079;51.092;3.458;2023-03-11T07:29:40;15.60;99.90
21834;DHT22;11079;51.092;3.458;2023-03-11T07:32:07;15.80;99.90
21834;DHT22;11079;51.092;3.458;2023-03-11T07:34:33;16.00;99.90
21834;DHT22;11079;51.092;3.458;2023-03-11T07:36:58;16.50;99.90
21834;DHT22;11079;51.092;3.458;2023-03-11T07:39:24;16.90;99.90
21834;DHT22;11079;51.092;3.458;2023-03-11T07:41:50;17.40;99.90
21834;DHT22;11079;51.092;3.458;2023-03-11T07:44:16;17.90;99.90
21834;DHT22;11079;51.092;3.458;2023-03-11T07:46:42;18.30;99.90
21834;DHT22;11079;51.092;3.458;2023-03-11T07:49:08;18.80;99.90
21834;DHT22;11079;51.092;3.458;2023-03-11T07:51:36;19.50;99.90
21834;DHT22;11079;51.092;3.458;2023-03-11T07:54:03;20.10;99.60
21834;DHT22;11079;51.092;3.458;2023-03-11T07:56:33;20.00;97.90
21834;DHT22;11079;51.092;3.458;2023-03-11T07:59:03;20.00;97.00
21834;DHT22;11079;51.092;3.458;2023-03-11T08:01:40;20.80;95.30
21834;DHT22;11079;51.092;3.458;2023-03-11T08:04:09;21.60;93.00
21834;DHT22;11079;51.092;3.458;2023-03-11T08:06:37;22.40;91.10
21834;DHT22;11079;51.092;3.458;2023-03-11T08:09:05;23.30;86.70
21834;DHT22;11079;51.092;3.458;2023-03-11T08:11:31;22.20;86.90
21834;DHT22;11079;51.092;3.458;2023-03-11T08:13:59;20.60;88.50
21834;DHT22;11079;51.092;3.458;2023-03-11T08:16:25;19.20;92.10
21834;DHT22;11079;51.092;3.458;2023-03-11T08:18:52;18.10;94.90
21834;DHT22;11079;51.092;3.458;2023-03-11T08:21:22;17.40;97.60
21834;DHT22;11079;51.092;3.458;2023-03-11T08:23:49;18.10;98.70
21834;DHT22;11079;51.092;3.458;2023-03-11T08:26:17;19.60;96.20
21834;DHT22;11079;51.092;3.458;2023-03-11T08:28:44;20.70;94.20
21834;DHT22;11079;51.092;3.458;2023-03-11T08:31:23;21.40;93.10
21834;DHT22;11079;51.092;3.458;2023-03-11T08:33:51;21.60;91.90
21834;DHT22;11079;51.092;3.458;2023-03-11T08:36:17;21.00;91.70
21834;DHT22;11079;51.092;3.458;2023-03-11T08:38:44;20.80;91.40
21834;DHT22;11079;51.092;3.458;2023-03-11T08:41:09;20.60;91.10
21834;DHT22;11079;51.092;3.458;2023-03-11T08:43:35;19.90;91.50
21834;DHT22;11079;51.092;3.458;2023-03-11T08:46:02;19.10;91.40
21834;DHT22;11079;51.092;3.458;2023-03-11T08:48:30;18.40;92.60
21834;DHT22;11079;51.092;3.458;2023-03-11T08:50:56;17.80;95.00
21834;DHT22;11079;51.092;3.458;2023-03-11T08:53:22;17.80;96.20
21834;DHT22;11079;51.092;3.458;2023-03-11T08:55:49;17.70;96.60
21834;DHT22;11079;51.092;3.458;2023-03-11T08:58:15;17.70;97.10
21834;DHT22;11079;51.092;3.458;2023-03-11T09:00:41;17.40;96.40
21834;DHT22;11079;51.092;3.458;2023-03-11T09:03:06;17.20;96.80
21834;DHT22;11079;51.092;3.458;2023-03-11T09:05:32;16.90;97.90
21834;DHT22;11079;51.092;3.458;2023-03-11T09:07:57;16.50;98.50
21834;DHT22;11079;51.092;3.458;2023-03-11T09:10:23;16.40;99.90
21834;DHT22;11079;51.092;3.458;2023-03-11T09:12:48;18.40;99.20
21834;DHT22;11079;51.092;3.458;2023-03-11T09:15:14;20.60;95.20
21834;DHT22;11079;51.092;3.458;2023-03-11T09:17:40;22.90;91.40
21834;DHT22;11079;51.092;3.458;2023-03-11T09:20:06;24.60;83.40
21834;DHT22;11079;51.092;3.458;2023-03-11T09:22:31;25.80;75.70
21834;DHT22;11079;51.092;3.458;2023-03-11T09:24:57;26.70;72.90
21834;DHT22;11079;51.092;3.458;2023-03-11T09:27:23;26.50;68.00
21834;DHT22;11079;51.092;3.458;2023-03-11T09:29:48;24.80;68.10
21834;DHT22;11079;51.092;3.458;2023-03-11T09:32:14;23.20;66.80
21834;DHT22;11079;51.092;3.458;2023-03-11T09:34:40;21.10;71.20
21834;DHT22;11079;51.092;3.458;2023-03-11T09:37:07;21.20;71.40
21834;DHT22;11079;51.092;3.458;2023-03-11T09:39:32;22.50;72.50
21834;DHT22;11079;51.092;3.458;2023-03-11T09:42:04;24.00;70.80
21834;DHT22;11079;51.092;3.458;2023-03-11T09:44:46;25.40;66.10
21834;DHT22;11079;51.092;3.458;2023-03-11T09:50:02;25.70;62.40
21834;DHT22;11079;51.092;3.458;2023-03-11T09:55:04;22.50;65.60
21834;DHT22;11079;51.092;3.458;2023-03-11T09:57:35;21.10;67.90
21834;DHT22;11079;51.092;3.458;2023-03-11T10:00:04;19.30;69.70
21834;DHT22;11079;51.092;3.458;2023-03-11T10:02:31;18.00;73.70
21834;DHT22;11079;51.092;3.458;2023-03-11T10:05:05;17.10;78.50
21834;DHT22;11079;51.092;3.458;2023-03-11T10:07:50;16.70;81.20
21834;DHT22;11079;51.092;3.458;2023-03-11T10:10:19;16.70;85.80
21834;DHT22;11079;51.092;3.458;2023-03-11T10:13:01;16.40;86.40
21834;DHT22;11079;51.092;3.458;2023-03-11T10:15:39;15.90;88.70
21834;DHT22;11079;51.092;3.458;2023-03-11T10:20:59;15.50;88.00
21834;DHT22;11079;51.092;3.458;2023-03-11T10:26:39;15.30;92.40
21834;DHT22;11079;51.092;3.458;2023-03-11T10:32:08;13.90;93.40
21834;DHT22;11079;51.092;3.458;2023-03-11T10:34:45;13.80;93.90
21834;DHT22;11079;51.092;3.458;2023-03-11T10:40:55;15.50;93.30
21834;DHT22;11079;51.092;3.458;2023-03-11T10:46:41;18.50;86.70
21834;DHT22;11079;51.092;3.458;2023-03-11T10:49:28;19.50;81.50
21834;DHT22;11079;51.092;3.458;2023-03-11T10:51:56;18.30;78.30
21834;DHT22;11079;51.092;3.458;2023-03-11T10:54:41;19.30;78.70
21834;DHT22;11079;51.092;3.458;2023-03-11T10:57:35;19.30;76.20
21834;DHT22;11079;51.092;3.458;2023-03-11T11:03:33;17.40;79.20
21834;DHT22;11079;51.092;3.458;2023-03-11T11:06:20;16.60;83.10
21834;DHT22;11079;51.092;3.458;2023-03-11T11:09:17;17.40;79.80
21834;DHT22;11079;51.092;3.458;2023-03-11T11:12:26;18.40;83.70
21834;DHT22;11079;51.092;3.458;2023-03-11T11:14:57;18.50;78.90
21834;DHT22;11079;51.092;3.458;2023-03-11T11:17:36;18.10;80.50
21834;DHT22;11079;51.092;3.458;2023-03-11T11:20:04;18.50;78.90
21834;DHT22;11079;51.092;3.458;2023-03-11T11:22:37;18.70;77.60
21834;DHT22;11079;51.092;3.458;2023-03-11T11:25:40;17.50;76.40
21834;DHT22;11079;51.092;3.458;2023-03-11T11:35:16;18.60;77.70
21834;DHT22;11079;51.092;3.458;2023-03-11T11:38:07;18.40;76.00
21834;DHT22;11079;51.092;3.458;2023-03-11T11:41:17;16.90;77.00
21834;DHT22;11079;51.092;3.458;2023-03-11T11:44:29;15.70;78.90
21834;DHT22;11079;51.092;3.458;2023-03-11T13:10:59;18.20;74.50
21834;DHT22;11079;51.092;3.458;2023-03-11T13:20:37;18.20;73.10
21834;DHT22;11079;51.092;3.458;2023-03-11T13:40:31;17.20;75.20
21834;DHT22;11079;51.092;3.458;2023-03-11T13:43:16;17.50;75.60
21834;DHT22;11079;51.092;3.458;2023-03-11T13:46:34;17.70;74.20
21834;DHT22;11079;51.092;3.458;2023-03-11T13:56:07;15.50;78.80
21834;DHT22;11079;51.092;3.458;2023-03-11T13:58:41;15.00;81.10
21834;DHT22;11079;51.092;3.458;2023-03-11T14:01:14;14.70;82.90
21834;DHT22;11079;51.092;3.458;2023-03-11T14:03:42;13.70;84.10
21834;DHT22;11079;51.092;3.458;2023-03-11T14:06:18;13.70;86.40
21834;DHT22;11079;51.092;3.458;2023-03-11T14:08:55;13.80;85.90
21834;DHT22;11079;51.092;3.458;2023-03-11T14:11:27;13.60;84.80
21834;DHT22;11079;51.092;3.458;2023-03-11T14:13:55;13.50;87.20
21834;DHT22;11079;51.092;3.458;2023-03-11T14:16:36;13.40;90.10
21834;DHT22;11079;51.092;3.458;2023-03-11T14:19:18;13.40;90.20
21834;DHT22;11079;51.092;3.458;2023-03-11T14:21:45;14.30;85.50
21834;DHT22;11079;51.092;3.458;2023-03-11T14:24:24;16.00;81.60
21834;DHT22;11079;51.092;3.458;2023-03-11T14:26:52;17.20;79.30
21834;DHT22;11079;51.092;3.458;2023-03-11T14:29:44;17.30;77.90
21834;DHT22;11079;51.092;3.458;2023-03-11T14:32:36;17.60;76.40
21834;DHT22;11079;51.092;3.458;2023-03-11T14:35:41;17.30;75.60
21834;DHT22;11079;51.092;3.458;2023-03-11T14:38:41;15.30;79.50
21834;DHT22;11079;51.092;3.458;2023-03-11T14:45:17;13.00;86.60
21834;DHT22;11079;51.092;3.458;2023-03-11T14:48:12;12.50;90.30
21834;DHT22;11079;51.092;3.458;2023-03-11T14:50:58;12.20;91.90
21834;DHT22;11079;51.092;3.458;2023-03-11T14:54:07;12.20;92.00
21834;DHT22;11079;51.092;3.458;2023-03-11T14:57:33;12.80;91.60
21834;DHT22;11079;51.092;3.458;2023-03-11T15:00:15;13.00;91.10
21834;DHT22;11079;51.092;3.458;2023-03-11T15:03:39;13.30;90.80
21834;DHT22;11079;51.092;3.458;2023-03-11T15:06:51;14.30;89.40
21834;DHT22;11079;51.092;3.458;2023-03-11T15:09:43;14.50;85.50
21834;DHT22;11079;51.092;3.458;2023-03-11T15:12:34;13.90;86.40
21834;DHT22;11079;51.092;3.458;2023-03-11T15:18:47;13.80;87.40
21834;DHT22;11079;51.092;3.458;2023-03-11T15:21:35;14.10;85.90
21834;DHT22;11079;51.092;3.458;2023-03-11T15:24:36;14.10;85.60
21834;DHT22;11079;51.092;3.458;2023-03-11T15:30:48;14.40;85.40
21834;DHT22;11079;51.092;3.458;2023-03-11T15:33:45;14.30;85.40
21834;DHT22;11079;51.092;3.458;2023-03-11T15:36:37;13.40;86.80
21834;DHT22;11079;51.092;3.458;2023-03-11T15:39:48;12.30;89.90
21834;DHT22;11079;51.092;3.458;2023-03-11T15:42:26;12.20;91.40
21834;DHT22;11079;51.092;3.458;2023-03-11T15:48:36;11.80;91.10
21834;DHT22;11079;51.092;3.458;2023-03-11T15:51:02;12.00;91.20
21834;DHT22;11079;51.092;3.458;2023-03-11T16:00:22;11.60;91.40
21834;DHT22;11079;51.092;3.458;2023-03-11T16:02:49;11.40;91.50
21834;DHT22;11079;51.092;3.458;2023-03-11T16:08:15;11.20;92.80
21834;DHT22;11079;51.092;3.458;2023-03-11T16:10:46;11.40;92.00
21834;DHT22;11079;51.092;3.458;2023-03-11T16:13:13;11.40;91.70
21834;DHT22;11079;51.092;3.458;2023-03-11T16:15:58;11.60;90.90
21834;DHT22;11079;51.092;3.458;2023-03-11T16:18:42;11.60;91.50
21834;DHT22;11079;51.092;3.458;2023-03-11T16:21:41;11.60;91.80
21834;DHT22;11079;51.092;3.458;2023-03-11T16:24:33;11.70;91.20
21834;DHT22;11079;51.092;3.458;2023-03-11T16:26:59;11.80;91.40
21834;DHT22;11079;51.092;3.458;2023-03-11T16:29:24;11.50;91.30
21834;DHT22;11079;51.092;3.458;2023-03-11T16:32:06;11.00;92.20
21834;DHT22;11079;51.092;3.458;2023-03-11T16:34:33;10.60;92.10
21834;DHT22;11079;51.092;3.458;2023-03-11T16:36:58;10.30;92.80
21834;DHT22;11079;51.092;3.458;2023-03-11T16:39:27;10.10;94.90
21834;DHT22;11079;51.092;3.458;2023-03-11T16:41:55;10.10;94.70
21834;DHT22;11079;51.092;3.458;2023-03-11T16:44:52;10.20;94.70
21834;DHT22;11079;51.092;3.458;2023-03-11T16:49:46;10.20;94.00
21834;DHT22;11079;51.092;3.458;2023-03-11T16:52:25;10.20;95.00
21834;DHT22;11079;51.092;3.458;2023-03-11T16:54:51;10.20;95.10
21834;DHT22;11079;51.092;3.458;2023-03-11T16:57:16;10.00;96.20
21834;DHT22;11079;51.092;3.458;2023-03-11T16:59:42;10.00;96.20
21834;DHT22;11079;51.092;3.458;2023-03-11T17:02:10;9.80;97.40
21834;DHT22;11079;51.092;3.458;2023-03-11T17:04:44;9.80;97.00
21834;DHT22;11079;51.092;3.458;2023-03-11T17:07:11;9.70;96.70
21834;DHT22;11079;51.092;3.458;2023-03-11T17:09:36;9.90;96.90
21834;DHT22;11079;51.092;3.458;2023-03-11T17:12:12;9.80;97.10
21834;DHT22;11079;51.092;3.458;2023-03-11T17:14:40;9.80;97.80
21834;DHT22;11079;51.092;3.458;2023-03-11T17:21:06;9.60;99.90
21834;DHT22;11079;51.092;3.458;2023-03-11T17:24:10;9.40;99.90
21834;DHT22;11079;51.092;3.458;2023-03-11T17:26:52;9.50;99.90
21834;DHT22;11079;51.092;3.458;2023-03-11T17:29:17;9.30;99.90
21834;DHT22;11079;51.092;3.458;2023-03-11T17:31:43;9.30;99.90
21834;DHT22;11079;51.092;3.458;2023-03-11T17:34:09;9.30;99.90
21834;DHT22;11079;51.092;3.458;2023-03-11T17:36:39;9.40;99.90
21834;DHT22;11079;51.092;3.458;2023-03-11T17:39:05;9.20;99.90
21834;DHT22;11079;51.092;3.458;2023-03-11T17:41:31;9.10;99.90
21834;DHT22;11079;51.092;3.458;2023-03-11T17:43:56;9.00;99.90
21834;DHT22;11079;51.092;3.458;2023-03-11T17:46:22;9.00;99.90
21834;DHT22;11079;51.092;3.458;2023-03-11T17:48:49;9.00;99.90
21834;DHT22;11079;51.092;3.458;2023-03-11T17:51:17;8.90;99.90
21834;DHT22;11079;51.092;3.458;2023-03-11T17:53:45;8.70;99.90
21834;DHT22;11079;51.092;3.458;2023-03-11T17:56:14;8.70;99.90
21834;DHT22;11079;51.092;3.458;2023-03-11T17:58:40;8.70;99.90
21834;DHT22;11079;51.092;3.458;2023-03-11T18:08:52;8.40;99.90
21834;DHT22;11079;51.092;3.458;2023-03-11T19:38:17;7.70;99.90
21834;DHT22;11079;51.092;3.458;2023-03-11T19:41:15;7.70;99.90
21834;DHT22;11079;51.092;3.458;2023-03-11T19:43:47;7.70;99.90
21834;DHT22;11079;51.092;3.458;2023-03-11T19:46:38;7.80;99.90
21834;DHT22;11079;51.092;3.458;2023-03-11T19:49:07;7.90;99.90
21834;DHT22;11079;51.092;3.458;2023-03-11T19:54:50;7.60;99.90
21834;DHT22;11079;51.092;3.458;2023-03-11T19:57:18;7.80;99.90
21834;DHT22;11079;51.092;3.458;2023-03-11T19:59:46;7.90;99.90
21834;DHT22;11079;51.092;3.458;2023-03-11T20:02:13;8.00;99.90
21834;DHT22;11079;51.092;3.458;2023-03-11T20:04:43;8.00;99.90
21834;DHT22;11079;51.092;3.458;2023-03-11T20:07:11;7.70;99.90
21834;DHT22;11079;51.092;3.458;2023-03-11T20:09:37;7.70;99.90
21834;DHT22;11079;51.092;3.458;2023-03-11T20:12:02;7.80;99.90
21834;DHT22;11079;51.092;3.458;2023-03-11T20:18:32;7.90;99.90
